10 augustus 2022

Tijd Code Weer Temp. Zicht Plafond Wind METAR/SPECI
23:30
V
21 °C 10 km+ - 270° 270° 11 kt METAR LPFR 102230Z 27011KT CAVOK 21/17 Q1014
23:00
V
21 °C 10 km+ - 270° 270° 11 kt METAR LPFR 102200Z 27011KT CAVOK 21/17 Q1014
22:30
V
21 °C 10 km+ - 260° 260° 11 kt METAR LPFR 102130Z 26011KT CAVOK 21/17 Q1014
22:00
V
21 °C 10 km+ - 260° 260° 12 kt METAR LPFR 102100Z 26012KT CAVOK 21/17 Q1014
21:30
V
21 °C 10 km+ - 260° 260° 11 kt METAR LPFR 102030Z 26011KT CAVOK 21/17 Q1014
21:00
V
21 °C 10 km+ - 260° 260° 10 kt METAR LPFR 102000Z 26010KT CAVOK 21/17 Q1013
20:30
V
21 °C 10 km+ - 260° 260° 10 kt METAR LPFR 101930Z 26010KT CAVOK 21/17 Q1013
20:00
V
22 °C 10 km+ - 250° 250° 11 kt METAR LPFR 101900Z 25011KT CAVOK 22/17 Q1013
19:30
V
22 °C 10 km+ - 260° 260° 12 kt METAR LPFR 101830Z 26012KT CAVOK 22/17 Q1013
19:00
V
22 °C 10 km+ - 250° 250° 12 kt METAR LPFR 101800Z 25012KT CAVOK 22/16 Q1013
18:30
V
23 °C 10 km+ - 240° 240° 10 kt METAR LPFR 101730Z 24010KT CAVOK 23/17 Q1013
18:00
V
23 °C 10 km+ - 220° 220° 10 kt METAR LPFR 101700Z 22010KT CAVOK 23/16 Q1013
17:30
V
23 °C 10 km+ - 230° 230° 10 kt METAR LPFR 101630Z 23010KT CAVOK 23/16 Q1014
17:00
V
23 °C 10 km+ - 220° 220° 10 kt METAR LPFR 101600Z 22010KT CAVOK 23/16 Q1014
16:30
V
23 °C 10 km+ - 230° 230° 9 kt METAR LPFR 101530Z 23009KT 200V260 CAVOK 23/16 Q1014
16:00
V
22 °C 10 km+ - 230° 230° 8 kt METAR LPFR 101500Z 23008KT 200V260 CAVOK 22/16 Q1014
15:30
V
22 °C 10 km+ - 240° 240° 9 kt METAR LPFR 101430Z 24009KT CAVOK 22/15 Q1014
15:00
V
23 °C 10 km+ - 220° 220° 9 kt METAR LPFR 101400Z 22009KT CAVOK 23/15 Q1015
14:30
V
23 °C 10 km+ - 220° 220° 8 kt METAR LPFR 101330Z 22008KT CAVOK 23/15 Q1015
14:00
V
22 °C 10 km+ - 210° 210° 7 kt METAR LPFR 101300Z 21007KT 180V240 CAVOK 22/16 Q1015
13:30
V
22 °C 10 km+ - 220° 220° 8 kt METAR LPFR 101230Z 22008KT 190V250 9999 FEW020 22/15 Q1015
13:00
M
22 °C 10 km+ 2.000 ft 220° 220° 9 kt METAR LPFR 101200Z 22009KT 9999 FEW016 BKN020 22/16 Q1015
12:30
M
22 °C 10 km+ 2.000 ft 230° 230° 8 kt METAR LPFR 101130Z 23008KT 9999 FEW016 BKN020 22/16 Q1015
12:00
M
21 °C 10 km+ 2.000 ft 230° 230° 9 kt METAR LPFR 101100Z 23009KT 200V260 9999 FEW014 OVC020 21/16 Q1015
11:30
M
21 °C 10 km+ 2.200 ft 230° 230° 8 kt METAR LPFR 101030Z 23008KT 9999 FEW014 OVC022 21/17 Q1015
11:00
M
21 °C 10 km+ 2.000 ft 240° 240° 7 kt METAR LPFR 101000Z 24007KT 9999 FEW014 BKN020 21/17 Q1015
10:30
M
21 °C 10 km+ 2.000 ft 230° 230° 8 kt METAR LPFR 100930Z 23008KT 9999 SCT012 BKN020 21/17 Q1015
10:00
M
21 °C 10 km+ 1.800 ft 230° 230° 7 kt METAR LPFR 100900Z 23007KT 9999 FEW012 BKN018 21/17 Q1015
09:30
V
21 °C 10 km+ - 210° 210° 8 kt METAR LPFR 100830Z 21008KT 190V250 9999 FEW010 SCT016 21/18 Q1015
09:00
V
20 °C 10 km+ - 220° 220° 6 kt METAR LPFR 100800Z 22006KT 9999 SCT010 SCT016 20/18 Q1014
08:30
M
20 °C 10 km+ 1.200 ft 190° 190° 5 kt METAR LPFR 100730Z 19005KT 150V220 9999 SCT010 BKN012 20/18 Q1014
08:00
V
20 °C 10 km+ - Var 000° 0 kt METAR LPFR 100700Z 00000KT 9999 SCT010 SCT012 20/18 Q1014
07:30
V
19 °C 10 km+ - 230° 230° 1 kt METAR LPFR 100630Z 23001KT 9999 FEW010 SCT030 19/17 Q1014
07:00
V
19 °C 10 km+ - 220° 220° 3 kt METAR LPFR 100600Z 22003KT 9999 FEW010 19/17 Q1014
06:30
V
19 °C 10 km+ - 240° 240° 4 kt METAR LPFR 100530Z 24004KT CAVOK 19/17 Q1013
06:00
V
19 °C 10 km+ - 250° 250° 4 kt METAR LPFR 100500Z 25004KT CAVOK 19/17 Q1013
05:30
V
19 °C 10 km+ - 240° 240° 5 kt METAR LPFR 100430Z 24005KT CAVOK 19/17 Q1013
05:00
V
20 °C 10 km+ - 230° 230° 4 kt METAR LPFR 100400Z 23004KT CAVOK 20/18 Q1013
04:30
V
20 °C 10 km+ - 230° 230° 3 kt METAR LPFR 100330Z 23003KT CAVOK 20/18 Q1013
04:00
V
20 °C 10 km+ - 240° 240° 4 kt METAR LPFR 100300Z 24004KT CAVOK 20/18 Q1014
03:30
V
21 °C 10 km+ - 210° 210° 7 kt METAR LPFR 100230Z 21007KT CAVOK 21/18 Q1014
03:00
V
21 °C 10 km+ - 220° 220° 4 kt METAR LPFR 100200Z 22004KT CAVOK 21/18 Q1014
02:30
V
21 °C 10 km+ - 230° 230° 5 kt METAR LPFR 100130Z 23005KT CAVOK 21/18 Q1014
02:00
V
21 °C 10 km+ - 220° 220° 5 kt METAR LPFR 100100Z 22005KT CAVOK 21/18 Q1014
01:30
V
21 °C 10 km+ - 230° 230° 6 kt METAR LPFR 100030Z 23006KT CAVOK 21/18 Q1014
01:00
V
21 °C 10 km+ - 230° 230° 5 kt METAR LPFR 100000Z 23005KT CAVOK 21/18 Q1014
00:30
V
21 °C 10 km+ - Var 000° 0 kt METAR LPFR 092330Z 00000KT CAVOK 21/18 Q1014
00:00
V
22 °C 10 km+ - 260° 260° 3 kt METAR LPFR 092300Z 26003KT CAVOK 22/19 Q1014

9 augustus 2022

Tijd Code Weer Temp. Zicht Plafond Wind METAR/SPECI
23:30
V
22 °C 10 km+ - 270° 270° 8 kt METAR LPFR 092230Z 27008KT CAVOK 22/19 Q1014
23:00
V
22 °C 10 km+ - 260° 260° 6 kt METAR LPFR 092200Z 26006KT CAVOK 22/19 Q1014
22:30
V
22 °C 10 km+ - 260° 260° 8 kt METAR LPFR 092130Z 26008KT CAVOK 22/19 Q1014
22:00
V
22 °C 10 km+ - 250° 250° 6 kt METAR LPFR 092100Z 25006KT CAVOK 22/19 Q1014
21:30
V
22 °C 10 km+ - 260° 260° 7 kt METAR LPFR 092030Z 26007KT CAVOK 22/19 Q1013
21:00
V
22 °C 10 km+ - 260° 260° 8 kt METAR LPFR 092000Z 26008KT CAVOK 22/19 Q1013
20:30
V
23 °C 10 km+ - 260° 260° 9 kt METAR LPFR 091930Z 26009KT CAVOK 23/19 Q1013
20:00
V
23 °C 10 km+ - 250° 250° 10 kt METAR LPFR 091900Z 25010KT CAVOK 23/19 Q1013
19:30
V
23 °C 10 km+ - 250° 250° 8 kt METAR LPFR 091830Z 25008KT CAVOK 23/19 Q1013
19:00
V
23 °C 10 km+ - 250° 250° 8 kt METAR LPFR 091800Z 25008KT CAVOK 23/19 Q1013
18:30
V
23 °C 10 km+ - 250° 250° 9 kt METAR LPFR 091730Z 25009KT CAVOK 23/19 Q1013
18:00
V
23 °C 10 km+ - 240° 240° 10 kt METAR LPFR 091700Z 24010KT CAVOK 23/18 Q1014
17:30
V
23 °C 10 km+ - 240° 240° 10 kt METAR LPFR 091630Z 24010KT CAVOK 23/18 Q1014
17:00
V
24 °C 10 km+ - 230° 230° 8 kt METAR LPFR 091600Z 23008KT CAVOK 24/18 Q1014
16:30
V
23 °C 10 km+ - 210° 210° 7 kt METAR LPFR 091530Z 21007KT 180V240 CAVOK 23/18 Q1014
16:00
V
23 °C 10 km+ - 210° 210° 7 kt METAR LPFR 091500Z 21007KT 180V250 CAVOK 23/17 Q1014
15:30
V
23 °C 10 km+ - 210° 210° 7 kt METAR LPFR 091430Z 21007KT 180V260 CAVOK 23/17 Q1015
15:00
V
23 °C 10 km+ - 230° 230° 7 kt METAR LPFR 091400Z 23007KT 190V260 CAVOK 23/17 Q1015
14:30
V
23 °C 10 km+ - 230° 230° 8 kt METAR LPFR 091330Z 23008KT CAVOK 23/17 Q1015
14:00
V
23 °C 10 km+ - 230° 230° 8 kt METAR LPFR 091300Z 23008KT 190V260 CAVOK 23/17 Q1015
13:30
V
23 °C 10 km+ - 220° 220° 7 kt METAR LPFR 091230Z 22007KT 190V250 CAVOK 23/17 Q1015
13:00
V
23 °C 10 km+ - 220° 220° 7 kt METAR LPFR 091200Z 22007KT 190V250 CAVOK 23/17 Q1015
12:30
V
23 °C 10 km+ - 210° 210° 7 kt METAR LPFR 091130Z 21007KT 170V230 CAVOK 23/18 Q1015
12:00
V
24 °C 10 km+ - 180° 180° 5 kt METAR LPFR 091100Z 18005KT 100V220 CAVOK 24/18 Q1015
11:30
V
23 °C 10 km+ - 210° 210° 6 kt METAR LPFR 091030Z 21006KT 170V240 CAVOK 23/17 Q1016
11:00
V
23 °C 10 km+ - 180° 180° 6 kt METAR LPFR 091000Z 18006KT 150V210 CAVOK 23/17 Q1016
10:30
V
23 °C 10 km+ - 180° 180° 6 kt METAR LPFR 090930Z 18006KT CAVOK 23/17 Q1015
10:00
V
23 °C 10 km+ - 160° 160° 6 kt METAR LPFR 090900Z 16006KT 140V200 CAVOK 23/17 Q1015
09:30
V
23 °C 10 km+ - 140° 140° 4 kt METAR LPFR 090830Z 14004KT CAVOK 23/16 Q1015
09:00
V
23 °C 10 km+ - Var Var 2 kt METAR LPFR 090800Z VRB02KT CAVOK 23/17 Q1015
08:30
V
23 °C 10 km+ - Var Var 2 kt METAR LPFR 090730Z VRB02KT CAVOK 23/17 Q1015
08:00
V
21 °C 10 km+ - 030° 030° 4 kt METAR LPFR 090700Z 03004KT CAVOK 21/15 Q1015
07:30
V
19 °C 10 km+ - 030° 030° 5 kt METAR LPFR 090630Z 03005KT 330V040 CAVOK 19/14 Q1014
07:00
V
19 °C 10 km+ - 020° 020° 6 kt METAR LPFR 090600Z 02006KT 330V030 CAVOK 19/14 Q1014
06:30
V
19 °C 10 km+ - 020° 020° 6 kt METAR LPFR 090530Z 02006KT CAVOK 19/14 Q1014
06:00
V
19 °C 10 km+ - 020° 020° 6 kt METAR LPFR 090500Z 02006KT CAVOK 19/14 Q1014
05:30
V
20 °C 10 km+ - 020° 020° 5 kt METAR LPFR 090430Z 02005KT CAVOK 20/14 Q1014
05:00
V
20 °C 10 km+ - 020° 020° 4 kt METAR LPFR 090400Z 02004KT CAVOK 20/14 Q1014
04:30
V
19 °C 10 km+ - 030° 030° 6 kt METAR LPFR 090330Z 03006KT CAVOK 19/14 Q1014
04:00
V
19 °C 10 km+ - 030° 030° 5 kt METAR LPFR 090300Z 03005KT CAVOK 19/14 Q1014
03:30
V
19 °C 10 km+ - Var 000° 0 kt METAR LPFR 090230Z 00000KT CAVOK 19/15 Q1014
03:00
V
20 °C 10 km+ - 290° 290° 2 kt METAR LPFR 090200Z 29002KT CAVOK 20/14 Q1014
02:30
V
19 °C 10 km+ - 230° 230° 2 kt METAR LPFR 090130Z 23002KT CAVOK 19/14 Q1015
02:00
V
20 °C 10 km+ - 340° 340° 4 kt METAR LPFR 090100Z 34004KT CAVOK 20/14 Q1015
01:30
V
20 °C 10 km+ - 340° 340° 4 kt METAR LPFR 090030Z 34004KT CAVOK 20/15 Q1015
01:00
V
20 °C 10 km+ - 320° 320° 6 kt METAR LPFR 090000Z 32006KT CAVOK 20/15 Q1015
00:30
V
21 °C 10 km+ - 310° 310° 5 kt METAR LPFR 082330Z 31005KT CAVOK 21/15 Q1015
00:00
V
21 °C 10 km+ - 310° 310° 9 kt METAR LPFR 082300Z 31009KT CAVOK 21/15 Q1015

8 augustus 2022

Tijd Code Weer Temp. Zicht Plafond Wind METAR/SPECI
23:30
V
22 °C 10 km+ - 310° 310° 10 kt METAR LPFR 082230Z 31010KT CAVOK 22/15 Q1015
23:00
V
22 °C 10 km+ - 290° 290° 10 kt METAR LPFR 082200Z 29010KT CAVOK 22/15 Q1015
22:30
V
22 °C 10 km+ - 270° 270° 12 kt METAR LPFR 082130Z 27012KT CAVOK 22/17 Q1015
22:00
V
22 °C 10 km+ - 260° 260° 11 kt METAR LPFR 082100Z 26011KT CAVOK 22/18 Q1015
21:30
V
22 °C 10 km+ - 260° 260° 12 kt METAR LPFR 082030Z 26012KT CAVOK 22/18 Q1014
21:00
V
22 °C 10 km+ - 250° 250° 13 kt METAR LPFR 082000Z 25013KT CAVOK 22/18 Q1014
20:30
V
22 °C 10 km+ - 250° 250° 11 kt METAR LPFR 081930Z 25011KT CAVOK 22/18 Q1014
20:00
V
22 °C 10 km+ - 240° 240° 11 kt METAR LPFR 081900Z 24011KT CAVOK 22/18 Q1014
19:30
V
23 °C 10 km+ - 250° 250° 12 kt METAR LPFR 081830Z 25012KT CAVOK 23/17 Q1014
19:00
V
23 °C 10 km+ - 250° 250° 13 kt METAR LPFR 081800Z 25013KT CAVOK 23/16 Q1014
18:30
V
23 °C 10 km+ - 240° 240° 14 kt METAR LPFR 081730Z 24014KT CAVOK 23/17 Q1015
18:00
V
24 °C 10 km+ - 240° 240° 14 kt METAR LPFR 081700Z 24014KT CAVOK 24/17 Q1015
17:30
V
23 °C 10 km+ - 240° 240° 14 kt METAR LPFR 081630Z 24014KT CAVOK 23/17 Q1015
17:00
V
24 °C 10 km+ - 240° 240° 14 kt METAR LPFR 081600Z 24014KT CAVOK 24/16 Q1015
16:30
V
24 °C 10 km+ - 240° 240° 14 kt METAR LPFR 081530Z 24014KT CAVOK 24/17 Q1015
16:00
V
24 °C 10 km+ - 230° 230° 13 kt METAR LPFR 081500Z 23013KT CAVOK 24/17 Q1015
Oudere gegevens

Met cookies volgen wij en derde partijen jouw internetgedrag binnen onze site. Als je verdergaat gaan we ervan uit dat je dit goedvindt. Meer info